sensor_id;sensor_type;location;lat;lon;timestamp;pressure;altitude;pressure_sealevel;temperature;humidity
36630;BME280;36256;42.154;23.002;2022-08-06T00:02:20;96917.22;;;22.72;70.34
36630;BME280;36256;42.154;23.002;2022-08-06T00:04:59;96918.31;;;22.69;68.18
36630;BME280;36256;42.154;23.002;2022-08-06T00:07:29;96913.91;;;22.68;70.07
36630;BME280;36256;42.154;23.002;2022-08-06T00:10:09;96923.56;;;22.65;70.16
36630;BME280;36256;42.154;23.002;2022-08-06T00:12:36;96923.41;;;22.57;70.22
36630;BME280;36256;42.154;23.002;2022-08-06T00:15:05;96915.69;;;22.52;69.63
36630;BME280;36256;42.154;23.002;2022-08-06T00:17:43;96922.97;;;22.35;71.06
36630;BME280;36256;42.154;23.002;2022-08-06T00:20:12;96917.03;;;22.33;72.53
36630;BME280;36256;42.154;23.002;2022-08-06T00:22:57;96919.59;;;22.36;71.69
36630;BME280;36256;42.154;23.002;2022-08-06T00:25:25;96915.41;;;22.19;71.75
36630;BME280;36256;42.154;23.002;2022-08-06T00:27:53;96914.97;;;22.15;73.91
36630;BME280;36256;42.154;23.002;2022-08-06T00:30:20;96914.72;;;22.13;74.82
36630;BME280;36256;42.154;23.002;2022-08-06T00:32:49;96918.19;;;22.06;75.52
36630;BME280;36256;42.154;23.002;2022-08-06T00:35:21;96924.59;;;22.12;73.48
36630;BME280;36256;42.154;23.002;2022-08-06T00:37:49;96914.03;;;22.07;75.02
36630;BME280;36256;42.154;23.002;2022-08-06T00:40:26;96929.63;;;22.06;73.60
36630;BME280;36256;42.154;23.002;2022-08-06T00:42:56;96920.13;;;21.98;73.64
36630;BME280;36256;42.154;23.002;2022-08-06T00:45:23;96921.66;;;21.99;73.56
36630;BME280;36256;42.154;23.002;2022-08-06T00:47:52;96921.88;;;22.01;74.21
36630;BME280;36256;42.154;23.002;2022-08-06T00:50:30;96924.69;;;22.06;73.61
36630;BME280;36256;42.154;23.002;2022-08-06T00:52:58;96925.63;;;21.96;73.95
36630;BME280;36256;42.154;23.002;2022-08-06T00:55:26;96924.06;;;21.95;72.48
36630;BME280;36256;42.154;23.002;2022-08-06T00:58:02;96935.16;;;21.79;72.73
36630;BME280;36256;42.154;23.002;2022-08-06T01:00:29;96930.28;;;21.74;73.84
36630;BME280;36256;42.154;23.002;2022-08-06T01:03:02;96929.44;;;21.79;75.60
36630;BME280;36256;42.154;23.002;2022-08-06T01:05:29;96930.19;;;21.80;76.06
36630;BME280;36256;42.154;23.002;2022-08-06T01:08:16;96927.88;;;21.78;74.68
36630;BME280;36256;42.154;23.002;2022-08-06T01:10:43;96933.59;;;21.78;75.14
36630;BME280;36256;42.154;23.002;2022-08-06T01:13:10;96925.84;;;21.73;77.31
36630;BME280;36256;42.154;23.002;2022-08-06T01:16:29;96923.38;;;21.64;75.40
36630;BME280;36256;42.154;23.002;2022-08-06T01:25:01;96931.84;;;21.51;77.21
36630;BME280;36256;42.154;23.002;2022-08-06T01:30:19;96924.34;;;21.48;80.23
36630;BME280;36256;42.154;23.002;2022-08-06T01:33:02;96927.28;;;21.43;79.61
36630;BME280;36256;42.154;23.002;2022-08-06T01:35:44;96924.41;;;21.43;78.33
36630;BME280;36256;42.154;23.002;2022-08-06T01:38:29;96926.72;;;21.44;78.74
36630;BME280;36256;42.154;23.002;2022-08-06T01:40:59;96926.78;;;21.39;79.30
36630;BME280;36256;42.154;23.002;2022-08-06T01:43:28;96924.38;;;21.24;80.48
36630;BME280;36256;42.154;23.002;2022-08-06T01:46:16;96929.59;;;21.20;80.40
36630;BME280;36256;42.154;23.002;2022-08-06T01:48:43;96918.19;;;21.20;80.25
36630;BME280;36256;42.154;23.002;2022-08-06T01:51:11;96921.75;;;21.26;79.78
36630;BME280;36256;42.154;23.002;2022-08-06T01:53:58;96924.38;;;21.24;80.00
36630;BME280;36256;42.154;23.002;2022-08-06T01:56:35;96926.00;;;21.14;80.17
36630;BME280;36256;42.154;23.002;2022-08-06T01:59:27;96928.69;;;21.06;81.45
36630;BME280;36256;42.154;23.002;2022-08-06T02:01:58;96926.59;;;21.07;81.93
36630;BME280;36256;42.154;23.002;2022-08-06T02:04:34;96929.94;;;21.11;82.03
36630;BME280;36256;42.154;23.002;2022-08-06T02:07:07;96931.00;;;21.08;82.48
36630;BME280;36256;42.154;23.002;2022-08-06T02:09:55;96936.47;;;21.06;82.74
36630;BME280;36256;42.154;23.002;2022-08-06T02:12:24;96923.75;;;21.01;83.33
36630;BME280;36256;42.154;23.002;2022-08-06T02:15:06;96937.53;;;21.03;83.34
36630;BME280;36256;42.154;23.002;2022-08-06T02:17:41;96932.06;;;21.05;84.04
36630;BME280;36256;42.154;23.002;2022-08-06T02:20:33;96927.91;;;21.06;84.77
36630;BME280;36256;42.154;23.002;2022-08-06T02:23:05;96922.81;;;20.93;81.74
36630;BME280;36256;42.154;23.002;2022-08-06T02:25:37;96929.47;;;20.72;82.10
36630;BME280;36256;42.154;23.002;2022-08-06T02:28:08;96928.72;;;20.71;82.68
36630;BME280;36256;42.154;23.002;2022-08-06T02:30:40;96932.59;;;20.74;83.61
36630;BME280;36256;42.154;23.002;2022-08-06T02:33:10;96932.88;;;20.70;83.32
36630;BME280;36256;42.154;23.002;2022-08-06T02:35:52;96931.91;;;20.62;83.74
36630;BME280;36256;42.154;23.002;2022-08-06T02:38:34;96936.91;;;20.51;83.29
36630;BME280;36256;42.154;23.002;2022-08-06T02:41:18;96933.31;;;20.45;83.22
36630;BME280;36256;42.154;23.002;2022-08-06T02:43:54;96935.66;;;20.46;83.41
36630;BME280;36256;42.154;23.002;2022-08-06T02:46:29;96931.28;;;20.40;83.02
36630;BME280;36256;42.154;23.002;2022-08-06T02:49:04;96936.50;;;20.36;84.09
36630;BME280;36256;42.154;23.002;2022-08-06T02:51:41;96931.56;;;20.36;82.87
36630;BME280;36256;42.154;23.002;2022-08-06T02:54:43;96941.88;;;20.45;83.26
36630;BME280;36256;42.154;23.002;2022-08-06T02:57:20;96930.69;;;20.47;82.47
36630;BME280;36256;42.154;23.002;2022-08-06T02:59:57;96941.06;;;20.50;82.82
36630;BME280;36256;42.154;23.002;2022-08-06T03:02:28;96941.31;;;20.52;81.49
36630;BME280;36256;42.154;23.002;2022-08-06T03:04:57;96947.00;;;20.52;80.53
36630;BME280;36256;42.154;23.002;2022-08-06T03:07:29;96941.53;;;20.54;80.73
36630;BME280;36256;42.154;23.002;2022-08-06T03:09:59;96934.34;;;20.47;80.22
36630;BME280;36256;42.154;23.002;2022-08-06T03:12:26;96943.66;;;20.48;80.70
36630;BME280;36256;42.154;23.002;2022-08-06T03:15:06;96943.66;;;20.48;80.05
36630;BME280;36256;42.154;23.002;2022-08-06T03:17:41;96939.56;;;20.43;83.23
36630;BME280;36256;42.154;23.002;2022-08-06T03:20:13;96945.78;;;20.42;82.57
36630;BME280;36256;42.154;23.002;2022-08-06T03:22:44;96943.75;;;20.37;83.70
36630;BME280;36256;42.154;23.002;2022-08-06T03:25:13;96954.94;;;20.29;84.05
36630;BME280;36256;42.154;23.002;2022-08-06T03:27:42;96957.25;;;20.30;83.22
36630;BME280;36256;42.154;23.002;2022-08-06T03:30:20;96964.06;;;20.16;83.00
36630;BME280;36256;42.154;23.002;2022-08-06T03:33:08;96960.72;;;20.07;83.70
36630;BME280;36256;42.154;23.002;2022-08-06T03:35:58;96966.94;;;20.05;83.04
36630;BME280;36256;42.154;23.002;2022-08-06T03:38:28;96967.00;;;19.94;83.55
36630;BME280;36256;42.154;23.002;2022-08-06T03:40:59;96964.66;;;19.98;84.13
36630;BME280;36256;42.154;23.002;2022-08-06T03:43:28;96964.66;;;19.98;84.21
36630;BME280;36256;42.154;23.002;2022-08-06T03:46:21;96962.63;;;19.93;84.41
36630;BME280;36256;42.154;23.002;2022-08-06T03:48:53;96967.75;;;20.00;84.22
36630;BME280;36256;42.154;23.002;2022-08-06T03:51:23;96968.53;;;20.01;84.24
36630;BME280;36256;42.154;23.002;2022-08-06T03:54:12;96964.66;;;19.98;84.72
36630;BME280;36256;42.154;23.002;2022-08-06T03:56:56;96970.03;;;20.07;84.19
36630;BME280;36256;42.154;23.002;2022-08-06T03:59:25;96972.13;;;20.07;83.94
36630;BME280;36256;42.154;23.002;2022-08-06T04:02:09;96969.50;;;20.09;83.62
36630;BME280;36256;42.154;23.002;2022-08-06T04:04:57;96973.38;;;20.11;84.39
36630;BME280;36256;42.154;23.002;2022-08-06T04:07:27;96970.03;;;20.07;83.59
36630;BME280;36256;42.154;23.002;2022-08-06T04:10:16;96974.47;;;20.08;83.75
36630;BME280;36256;42.154;23.002;2022-08-06T04:13:00;96976.00;;;20.09;83.71
36630;BME280;36256;42.154;23.002;2022-08-06T04:15:49;96982.72;;;20.12;83.40
36630;BME280;36256;42.154;23.002;2022-08-06T04:18:21;96987.38;;;20.20;83.53
36630;BME280;36256;42.154;23.002;2022-08-06T04:20:55;96986.84;;;20.11;83.19
36630;BME280;36256;42.154;23.002;2022-08-06T04:23:43;96988.38;;;20.17;83.61
36630;BME280;36256;42.154;23.002;2022-08-06T04:26:11;96993.84;;;20.21;83.87
36630;BME280;36256;42.154;23.002;2022-08-06T04:28:42;96997.94;;;20.25;82.48
36630;BME280;36256;42.154;23.002;2022-08-06T04:31:18;96994.34;;;20.25;82.97
36630;BME280;36256;42.154;23.002;2022-08-06T04:34:06;96997.69;;;20.23;82.37
36630;BME280;36256;42.154;23.002;2022-08-06T04:36:37;96995.59;;;20.29;82.40
36630;BME280;36256;42.154;23.002;2022-08-06T04:39:12;96993.75;;;20.32;80.76
36630;BME280;36256;42.154;23.002;2022-08-06T04:41:46;97001.03;;;20.33;81.78
36630;BME280;36256;42.154;23.002;2022-08-06T04:44:22;97003.81;;;20.39;81.00
36630;BME280;36256;42.154;23.002;2022-08-06T04:46:51;97008.72;;;20.44;81.29
36630;BME280;36256;42.154;23.002;2022-08-06T04:49:18;97011.03;;;20.45;81.42
36630;BME280;36256;42.154;23.002;2022-08-06T04:51:46;97010.50;;;20.47;80.81
36630;BME280;36256;42.154;23.002;2022-08-06T04:54:33;97005.81;;;20.55;80.71
36630;BME280;36256;42.154;23.002;2022-08-06T04:57:00;97012.28;;;20.55;81.22
36630;BME280;36256;42.154;23.002;2022-08-06T04:59:47;97010.19;;;20.56;82.85
36630;BME280;36256;42.154;23.002;2022-08-06T05:02:16;97007.59;;;20.58;80.05
36630;BME280;36256;42.154;23.002;2022-08-06T05:04:44;97007.84;;;20.60;80.11
36630;BME280;36256;42.154;23.002;2022-08-06T05:07:22;97023.66;;;20.55;80.37
36630;BME280;36256;42.154;23.002;2022-08-06T05:09:58;97007.78;;;20.71;79.69
36630;BME280;36256;42.154;23.002;2022-08-06T05:12:27;97011.84;;;20.81;81.02
36630;BME280;36256;42.154;23.002;2022-08-06T05:15:04;97009.44;;;20.90;80.29
36630;BME280;36256;42.154;23.002;2022-08-06T05:20:11;97011.59;;;21.14;79.01
36630;BME280;36256;42.154;23.002;2022-08-06T05:22:59;97014.03;;;21.04;78.46
36630;BME280;36256;42.154;23.002;2022-08-06T05:25:35;97016.06;;;21.09;77.02
36630;BME280;36256;42.154;23.002;2022-08-06T05:28:04;97009.56;;;21.09;78.37
36630;BME280;36256;42.154;23.002;2022-08-06T05:30:48;97015.06;;;21.31;78.40
36630;BME280;36256;42.154;23.002;2022-08-06T05:33:34;97017.13;;;21.36;79.36
36630;BME280;36256;42.154;23.002;2022-08-06T05:36:11;97006.50;;;21.31;79.31
36630;BME280;36256;42.154;23.002;2022-08-06T05:38:45;97007.84;;;21.30;79.36
36630;BME280;36256;42.154;23.002;2022-08-06T05:41:25;97008.22;;;21.45;79.10
36630;BME280;36256;42.154;23.002;2022-08-06T05:43:56;97007.03;;;21.59;79.38
36630;BME280;36256;42.154;23.002;2022-08-06T05:46:55;97017.00;;;21.71;79.19
36630;BME280;36256;42.154;23.002;2022-08-06T05:49:46;97011.00;;;21.99;77.34
36630;BME280;36256;42.154;23.002;2022-08-06T05:55:18;97004.53;;;22.92;72.55
36630;BME280;36256;42.154;23.002;2022-08-06T05:58:04;97019.84;;;23.71;69.35
36630;BME280;36256;42.154;23.002;2022-08-06T06:00:33;97018.94;;;24.54;65.50
36630;BME280;36256;42.154;23.002;2022-08-06T06:03:15;97014.91;;;25.17;63.63
36630;BME280;36256;42.154;23.002;2022-08-06T06:05:55;97009.06;;;25.72;59.83
36630;BME280;36256;42.154;23.002;2022-08-06T06:08:41;97002.22;;;26.38;57.94
36630;BME280;36256;42.154;23.002;2022-08-06T06:11:28;97003.97;;;26.85;58.18
36630;BME280;36256;42.154;23.002;2022-08-06T06:14:35;97011.78;;;27.43;56.21
36630;BME280;36256;42.154;23.002;2022-08-06T06:20:13;96993.31;;;28.14;51.45
36630;BME280;36256;42.154;23.002;2022-08-06T06:22:49;96986.84;;;28.45;49.54
36630;BME280;36256;42.154;23.002;2022-08-06T06:25:21;96985.13;;;28.57;50.20
36630;BME280;36256;42.154;23.002;2022-08-06T06:28:02;96975.28;;;28.60;47.77
36630;BME280;36256;42.154;23.002;2022-08-06T06:36:28;96983.03;;;29.47;46.92
36630;BME280;36256;42.154;23.002;2022-08-06T06:39:36;96973.66;;;29.64;45.33
36630;BME280;36256;42.154;23.002;2022-08-06T06:42:11;96969.47;;;29.82;44.33
36630;BME280;36256;42.154;23.002;2022-08-06T06:45:21;96963.63;;;30.06;44.85
36630;BME280;36256;42.154;23.002;2022-08-06T06:48:20;96968.66;;;30.06;45.94
36630;BME280;36256;42.154;23.002;2022-08-06T06:50:51;96964.41;;;30.07;46.03
36630;BME280;36256;42.154;23.002;2022-08-06T06:53:19;96972.44;;;29.74;47.55
36630;BME280;36256;42.154;23.002;2022-08-06T06:55:54;96957.25;;;29.66;45.40
36630;BME280;36256;42.154;23.002;2022-08-06T06:59:01;96964.81;;;29.62;48.58
36630;BME280;36256;42.154;23.002;2022-08-06T07:01:30;96958.13;;;30.18;46.68
36630;BME280;36256;42.154;23.002;2022-08-06T07:04:00;96942.94;;;30.61;45.00
36630;BME280;36256;42.154;23.002;2022-08-06T07:06:30;96950.16;;;30.70;43.59
36630;BME280;36256;42.154;23.002;2022-08-06T07:09:14;96945.16;;;30.70;45.48
36630;BME280;36256;42.154;23.002;2022-08-06T07:12:02;96943.66;;;30.96;44.37
36630;BME280;36256;42.154;23.002;2022-08-06T07:14:32;96938.94;;;31.27;42.32
36630;BME280;36256;42.154;23.002;2022-08-06T07:17:03;96939.03;;;31.46;43.82
36630;BME280;36256;42.154;23.002;2022-08-06T07:19:51;96932.69;;;31.76;42.46
36630;BME280;36256;42.154;23.002;2022-08-06T07:22:21;96932.31;;;31.99;44.33
36630;BME280;36256;42.154;23.002;2022-08-06T07:24:58;96935.00;;;31.88;41.79
36630;BME280;36256;42.154;23.002;2022-08-06T07:27:30;96917.75;;;31.90;42.86
36630;BME280;36256;42.154;23.002;2022-08-06T07:30:10;96921.94;;;32.15;41.25
36630;BME280;36256;42.154;23.002;2022-08-06T07:32:37;96913.97;;;31.97;41.74
36630;BME280;36256;42.154;23.002;2022-08-06T07:35:11;96914.50;;;31.66;42.24
36630;BME280;36256;42.154;23.002;2022-08-06T07:37:49;96911.16;;;31.70;43.40
36630;BME280;36256;42.154;23.002;2022-08-06T07:40:22;96902.81;;;31.38;42.19
36630;BME280;36256;42.154;23.002;2022-08-06T07:43:00;96897.88;;;31.31;44.29
36630;BME280;36256;42.154;23.002;2022-08-06T07:45:31;96898.97;;;31.35;42.43
36630;BME280;36256;42.154;23.002;2022-08-06T07:48:23;96901.66;;;31.60;46.62
36630;BME280;36256;42.154;23.002;2022-08-06T07:50:52;96897.81;;;32.03;40.76
36630;BME280;36256;42.154;23.002;2022-08-06T07:53:21;96897.44;;;31.80;43.21
36630;BME280;36256;42.154;23.002;2022-08-06T07:56:08;96890.72;;;31.68;42.78
36630;BME280;36256;42.154;23.002;2022-08-06T07:58:37;96883.22;;;31.74;40.82
36630;BME280;36256;42.154;23.002;2022-08-06T08:01:11;96883.84;;;31.92;42.74
36630;BME280;36256;42.154;23.002;2022-08-06T08:03:42;96880.53;;;32.05;41.25
36630;BME280;36256;42.154;23.002;2022-08-06T08:06:50;96882.50;;;31.93;44.03
36630;BME280;36256;42.154;23.002;2022-08-06T08:09:19;96892.31;;;32.07;42.08
36630;BME280;36256;42.154;23.002;2022-08-06T08:12:11;96879.00;;;32.23;41.84
36630;BME280;36256;42.154;23.002;2022-08-06T08:14:58;96880.53;;;32.15;43.31
36630;BME280;36256;42.154;23.002;2022-08-06T08:17:28;96882.53;;;32.03;41.87
36630;BME280;36256;42.154;23.002;2022-08-06T08:20:07;96883.28;;;32.03;39.93
36630;BME280;36256;42.154;23.002;2022-08-06T08:22:43;96880.19;;;31.92;43.74
36630;BME280;36256;42.154;23.002;2022-08-06T08:25:16;96888.16;;;31.91;43.41
36630;BME280;36256;42.154;23.002;2022-08-06T08:28:04;96878.72;;;32.10;42.99
36630;BME280;36256;42.154;23.002;2022-08-06T08:30:40;96886.31;;;31.96;42.57
36630;BME280;36256;42.154;23.002;2022-08-06T08:33:07;96883.41;;;31.86;41.77
36630;BME280;36256;42.154;23.002;2022-08-06T08:35:41;96887.09;;;31.96;44.86
36630;BME280;36256;42.154;23.002;2022-08-06T08:38:20;96890.75;;;32.25;41.37
36630;BME280;36256;42.154;23.002;2022-08-06T08:40:54;96883.13;;;32.39;37.98
36630;BME280;36256;42.154;23.002;2022-08-06T08:43:38;96874.13;;;32.26;38.73
36630;BME280;36256;42.154;23.002;2022-08-06T08:46:26;96878.09;;;32.49;39.27
36630;BME280;36256;42.154;23.002;2022-08-06T08:48:58;96875.63;;;32.17;41.12
36630;BME280;36256;42.154;23.002;2022-08-06T08:51:26;96870.28;;;32.04;40.39
36630;BME280;36256;42.154;23.002;2022-08-06T08:53:55;96855.03;;;31.94;43.27
36630;BME280;36256;42.154;23.002;2022-08-06T08:56:24;96869.06;;;32.26;41.82
36630;BME280;36256;42.154;23.002;2022-08-06T08:59:11;96865.84;;;32.51;40.26
36630;BME280;36256;42.154;23.002;2022-08-06T09:01:59;96862.75;;;32.68;39.47
36630;BME280;36256;42.154;23.002;2022-08-06T09:04:26;96856.03;;;32.66;40.46
36630;BME280;36256;42.154;23.002;2022-08-06T09:06:55;96850.09;;;32.44;42.24
36630;BME280;36256;42.154;23.002;2022-08-06T09:09:23;96852.69;;;32.60;39.19
36630;BME280;36256;42.154;23.002;2022-08-06T09:11:56;96846.28;;;32.52;41.00
36630;BME280;36256;42.154;23.002;2022-08-06T09:14:43;96853.03;;;32.54;41.31
36630;BME280;36256;42.154;23.002;2022-08-06T09:17:13;96841.81;;;32.70;38.70
36630;BME280;36256;42.154;23.002;2022-08-06T09:19:43;96839.25;;;32.95;38.52
36630;BME280;36256;42.154;23.002;2022-08-06T09:22:11;96835.03;;;32.86;38.58
36630;BME280;36256;42.154;23.002;2022-08-06T09:24:38;96828.75;;;32.90;40.46
36630;BME280;36256;42.154;23.002;2022-08-06T09:27:10;96827.78;;;33.06;40.15
36630;BME280;36256;42.154;23.002;2022-08-06T09:29:59;96828.72;;;32.99;42.55
36630;BME280;36256;42.154;23.002;2022-08-06T09:32:46;96826.72;;;33.02;37.09
36630;BME280;36256;42.154;23.002;2022-08-06T09:38:11;96826.72;;;33.02;43.36
36630;BME280;36256;42.154;23.002;2022-08-06T09:41:02;96814.63;;;33.05;39.92
36630;BME280;36256;42.154;23.002;2022-08-06T09:43:32;96806.06;;;32.58;40.27
36630;BME280;36256;42.154;23.002;2022-08-06T09:46:54;96809.31;;;32.52;40.03
36630;BME280;36256;42.154;23.002;2022-08-06T09:49:22;96797.81;;;32.44;43.51
36630;BME280;36256;42.154;23.002;2022-08-06T09:52:16;96800.44;;;32.50;44.81
36630;BME280;36256;42.154;23.002;2022-08-06T09:54:45;96803.31;;;32.60;41.17
36630;BME280;36256;42.154;23.002;2022-08-06T09:57:20;96801.28;;;32.72;40.05
36630;BME280;36256;42.154;23.002;2022-08-06T09:59:50;96796.22;;;32.82;39.03
36630;BME280;36256;42.154;23.002;2022-08-06T10:02:18;96797.06;;;32.94;39.96
36630;BME280;36256;42.154;23.002;2022-08-06T10:05:08;96794.38;;;33.17;38.62
36630;BME280;36256;42.154;23.002;2022-08-06T10:07:47;96799.31;;;33.36;39.76
36630;BME280;36256;42.154;23.002;2022-08-06T10:10:19;96791.03;;;33.63;34.51
36630;BME280;36256;42.154;23.002;2022-08-06T10:13:14;96776.56;;;33.74;34.61
36630;BME280;36256;42.154;23.002;2022-08-06T10:15:46;96786.53;;;33.71;34.19
36630;BME280;36256;42.154;23.002;2022-08-06T10:21:32;96768.94;;;32.87;35.09
36630;BME280;36256;42.154;23.002;2022-08-06T10:24:10;96781.81;;;32.84;38.14
36630;BME280;36256;42.154;23.002;2022-08-06T10:26:38;96767.75;;;32.80;36.04
36630;BME280;36256;42.154;23.002;2022-08-06T10:29:10;96770.78;;;32.82;35.26
36630;BME280;36256;42.154;23.002;2022-08-06T10:31:39;96770.94;;;32.84;34.90
36630;BME280;36256;42.154;23.002;2022-08-06T10:34:10;96769.91;;;32.80;39.25
36630;BME280;36256;42.154;23.002;2022-08-06T10:39:10;96767.50;;;33.59;34.64
36630;BME280;36256;42.154;23.002;2022-08-06T10:42:02;96758.44;;;33.64;37.47
36630;BME280;36256;42.154;23.002;2022-08-06T10:44:48;96752.72;;;33.45;36.20
36630;BME280;36256;42.154;23.002;2022-08-06T10:47:16;96760.03;;;33.46;38.95
36630;BME280;36256;42.154;23.002;2022-08-06T10:50:04;96758.00;;;33.58;37.32
36630;BME280;36256;42.154;23.002;2022-08-06T10:52:52;96764.38;;;33.66;40.98
36630;BME280;36256;42.154;23.002;2022-08-06T10:55:20;96743.84;;;33.85;33.99
36630;BME280;36256;42.154;23.002;2022-08-06T10:57:47;96752.47;;;33.95;35.31
36630;BME280;36256;42.154;23.002;2022-08-06T11:00:17;96759.19;;;34.19;32.14
36630;BME280;36256;42.154;23.002;2022-08-06T11:05:26;96757.97;;;34.45;31.39
36630;BME280;36256;42.154;23.002;2022-08-06T11:14:09;96746.75;;;34.86;31.66
36630;BME280;36256;42.154;23.002;2022-08-06T11:16:54;96752.75;;;34.99;35.50
36630;BME280;36256;42.154;23.002;2022-08-06T11:19:44;96760.59;;;35.08;36.42
36630;BME280;36256;42.154;23.002;2022-08-06T11:22:40;96750.09;;;35.03;34.78
36630;BME280;36256;42.154;23.002;2022-08-06T11:28:05;96753.47;;;34.65;34.05
36630;BME280;36256;42.154;23.002;2022-08-06T11:30:50;96755.50;;;34.51;31.76
36630;BME280;36256;42.154;23.002;2022-08-06T11:36:04;96750.19;;;34.59;32.20
36630;BME280;36256;42.154;23.002;2022-08-06T11:41:31;96745.13;;;34.83;34.24
36630;BME280;36256;42.154;23.002;2022-08-06T11:44:27;96744.63;;;34.86;37.69
36630;BME280;36256;42.154;23.002;2022-08-06T11:49:44;96729.16;;;34.72;30.59
36630;BME280;36256;42.154;23.002;2022-08-06T11:55:11;96724.59;;;34.69;34.94
36630;BME280;36256;42.154;23.002;2022-08-06T12:00:55;96717.25;;;34.68;30.30
36630;BME280;36256;42.154;23.002;2022-08-06T12:03:39;96704.28;;;34.48;32.58
36630;BME280;36256;42.154;23.002;2022-08-06T12:06:24;96711.63;;;34.49;31.82
36630;BME280;36256;42.154;23.002;2022-08-06T12:09:11;96700.25;;;34.53;30.78
36630;BME280;36256;42.154;23.002;2022-08-06T12:11:49;96702.78;;;34.58;32.84
36630;BME280;36256;42.154;23.002;2022-08-06T12:14:37;96693.94;;;34.68;31.67
36630;BME280;36256;42.154;23.002;2022-08-06T12:17:15;96702.03;;;34.58;34.29
36630;BME280;36256;42.154;23.002;2022-08-06T12:19:44;96701.00;;;34.53;35.23
36630;BME280;36256;42.154;23.002;2022-08-06T12:22:29;96703.53;;;34.70;32.68
36630;BME280;36256;42.154;23.002;2022-08-06T12:24:58;96703.81;;;34.63;34.40
36630;BME280;36256;42.154;23.002;2022-08-06T12:27:37;96700.75;;;34.61;30.45
36630;BME280;36256;42.154;23.002;2022-08-06T12:30:16;96683.28;;;34.61;29.77
36630;BME280;36256;42.154;23.002;2022-08-06T12:33:04;96675.28;;;34.38;33.51
36630;BME280;36256;42.154;23.002;2022-08-06T12:35:51;96694.69;;;34.57;32.01
36630;BME280;36256;42.154;23.002;2022-08-06T12:38:19;96679.97;;;34.66;31.38
36630;BME280;36256;42.154;23.002;2022-08-06T12:40:55;96693.66;;;34.87;32.05
36630;BME280;36256;42.154;23.002;2022-08-06T12:43:23;96690.88;;;35.01;31.61
36630;BME280;36256;42.154;23.002;2022-08-06T12:46:10;96685.03;;;34.89;33.51
36630;BME280;36256;42.154;23.002;2022-08-06T12:48:48;96683.03;;;35.03;30.67
36630;BME280;36256;42.154;23.002;2022-08-06T12:51:16;96681.22;;;34.98;31.59
36630;BME280;36256;42.154;23.002;2022-08-06T12:56:16;96683.88;;;34.94;33.61
36630;BME280;36256;42.154;23.002;2022-08-06T12:58:59;96685.81;;;34.78;33.79
36630;BME280;36256;42.154;23.002;2022-08-06T13:01:28;96691.53;;;34.76;30.80
36630;BME280;36256;42.154;23.002;2022-08-06T13:04:16;96685.69;;;34.76;31.29
36630;BME280;36256;42.154;23.002;2022-08-06T13:06:45;96691.66;;;35.01;31.24
36630;BME280;36256;42.154;23.002;2022-08-06T13:09:16;96684.53;;;34.81;33.21
36630;BME280;36256;42.154;23.002;2022-08-06T13:11:43;96682.63;;;34.97;30.23
36630;BME280;36256;42.154;23.002;2022-08-06T13:14:17;96678.94;;;34.97;33.08
36630;BME280;36256;42.154;23.002;2022-08-06T13:16:47;96680.97;;;35.17;30.32
36630;BME280;36256;42.154;23.002;2022-08-06T13:19:23;96683.75;;;35.15;30.63
36630;BME280;36256;42.154;23.002;2022-08-06T13:22:05;96693.41;;;35.06;32.42
36630;BME280;36256;42.154;23.002;2022-08-06T13:24:34;96683.41;;;34.86;33.70
36630;BME280;36256;42.154;23.002;2022-08-06T13:27:31;96683.28;;;34.61;31.69
36630;BME280;36256;42.154;23.002;2022-08-06T13:30:03;96680.25;;;34.59;30.80
36630;BME280;36256;42.154;23.002;2022-08-06T13:32:50;96692.13;;;34.51;30.57
36630;BME280;36256;42.154;23.002;2022-08-06T13:35:25;96700.69;;;34.15;34.10
36630;BME280;36256;42.154;23.002;2022-08-06T13:37:58;96689.91;;;33.84;34.40
36630;BME280;36256;42.154;23.002;2022-08-06T13:40:45;96698.75;;;33.75;36.16
36630;BME280;36256;42.154;23.002;2022-08-06T13:43:42;96694.34;;;33.53;35.83
36630;BME280;36256;42.154;23.002;2022-08-06T13:46:19;96688.47;;;33.41;36.18
36630;BME280;36256;42.154;23.002;2022-08-06T13:48:59;96685.13;;;33.35;35.15
36630;BME280;36256;42.154;23.002;2022-08-06T13:51:37;96681.41;;;33.02;37.45
36630;BME280;36256;42.154;23.002;2022-08-06T13:54:14;96686.91;;;32.98;38.01
36630;BME280;36256;42.154;23.002;2022-08-06T13:56:46;96693.19;;;32.94;36.33
36630;BME280;36256;42.154;23.002;2022-08-06T13:59:17;96690.16;;;32.92;38.49
36630;BME280;36256;42.154;23.002;2022-08-06T14:01:47;96684.81;;;32.89;36.90
36630;BME280;36256;42.154;23.002;2022-08-06T14:04:16;96698.78;;;32.81;38.97
36630;BME280;36256;42.154;23.002;2022-08-06T14:06:45;96693.50;;;32.68;37.39
36630;BME280;36256;42.154;23.002;2022-08-06T14:09:14;96690.81;;;32.50;36.83
36630;BME280;36256;42.154;23.002;2022-08-06T14:11:55;96681.50;;;32.52;38.02
36630;BME280;36256;42.154;23.002;2022-08-06T14:14:25;96686.09;;;32.45;38.30
36630;BME280;36256;42.154;23.002;2022-08-06T14:16:57;96690.13;;;32.31;37.41
36630;BME280;36256;42.154;23.002;2022-08-06T14:19:25;96679.63;;;32.16;37.59
36630;BME280;36256;42.154;23.002;2022-08-06T14:22:12;96682.97;;;32.22;38.57
36630;BME280;36256;42.154;23.002;2022-08-06T14:24:39;96680.50;;;32.28;35.69
36630;BME280;36256;42.154;23.002;2022-08-06T14:27:19;96682.22;;;32.22;38.33
36630;BME280;36256;42.154;23.002;2022-08-06T14:29:51;96682.13;;;31.91;37.88
36630;BME280;36256;42.154;23.002;2022-08-06T14:32:38;96671.44;;;32.03;35.14
36630;BME280;36256;42.154;23.002;2022-08-06T14:35:06;96674.00;;;31.90;36.46
36630;BME280;36256;42.154;23.002;2022-08-06T14:37:33;96666.84;;;31.81;37.74
36630;BME280;36256;42.154;23.002;2022-08-06T14:40:18;96658.31;;;31.83;38.05
36630;BME280;36256;42.154;23.002;2022-08-06T14:43:25;96657.53;;;31.92;36.71